Time;durP1;ratioP1;P1;durP2;ratioP2;P2;SDS_P1;SDS_P2;PMS_P1;PMS_P2;Temp;Humidity;BMP_temperature;BMP_pressure;BME280_temperature;BME280_humidity;BME280_pressure;Samples;Min_cycle;Max_cycle;Signal;HPM_P1;HPM_P2
2023/11/12 00:01:49;;;;;;;19.97;12.87;;;4.70;99.90;;;;;;5043801;28;20296;-53
2023/11/12 00:04:19;;;;;;;25.00;14.17;;;4.70;99.90;;;;;;5044294;28;20328;-53
2023/11/12 00:06:47;;;;;;;25.83;14.53;;;4.70;99.90;;;;;;5040429;28;20844;-52
2023/11/12 00:09:15;;;;;;;28.33;16.07;;;4.70;99.90;;;;;;5047026;28;20229;-53
2023/11/12 00:11:44;;;;;;;26.10;15.67;;;4.70;99.90;;;;;;5037940;28;20220;-52
2023/11/12 00:14:13;;;;;;;28.83;16.43;;;4.80;99.90;;;;;;5044657;28;20221;-54
2023/11/12 00:16:43;;;;;;;28.43;16.27;;;4.70;99.90;;;;;;5043960;28;20589;-53
2023/11/12 00:19:11;;;;;;;28.97;16.97;;;4.70;99.90;;;;;;5042307;28;20204;-55
2023/11/12 00:21:41;;;;;;;29.97;17.80;;;4.80;99.90;;;;;;5043526;28;20213;-52
2023/11/12 00:24:11;;;;;;;27.20;17.43;;;4.70;99.90;;;;;;5044320;28;20225;-52
2023/11/12 00:26:39;;;;;;;31.70;17.57;;;4.70;99.90;;;;;;5049246;28;20220;-53
2023/11/12 00:29:08;;;;;;;26.07;17.63;;;4.70;99.90;;;;;;5048916;28;20229;-52
2023/11/12 00:31:36;;;;;;;34.43;18.17;;;4.70;99.90;;;;;;5042321;28;20188;-55
2023/11/12 00:34:04;;;;;;;34.03;18.40;;;4.70;99.90;;;;;;5042872;28;20323;-55
2023/11/12 00:36:32;;;;;;;29.10;17.07;;;4.70;99.90;;;;;;5043422;28;20228;-55
2023/11/12 00:39:02;;;;;;;34.10;18.43;;;4.60;99.90;;;;;;5050886;28;20225;-54
2023/11/12 00:41:30;;;;;;;33.60;18.17;;;4.60;99.90;;;;;;5048417;28;20727;-49
2023/11/12 00:43:58;;;;;;;31.57;18.43;;;4.60;99.90;;;;;;5040244;28;20236;-52
2023/11/12 00:46:26;;;;;;;25.13;16.73;;;4.50;99.90;;;;;;5043146;28;20198;-52
2023/11/12 00:48:56;;;;;;;34.20;19.03;;;4.50;99.90;;;;;;5044563;28;20690;-50
2023/11/12 00:51:24;;;;;;;29.20;18.47;;;4.40;99.90;;;;;;5042742;28;20217;-53
2023/11/12 00:53:52;;;;;;;35.67;18.20;;;4.40;99.90;;;;;;5044513;28;20219;-51
2023/11/12 00:56:22;;;;;;;29.77;17.33;;;4.30;99.90;;;;;;5050025;28;20221;-52
2023/11/12 00:58:50;;;;;;;27.23;17.40;;;4.30;99.90;;;;;;5044858;28;20192;-53
2023/11/12 01:01:19;;;;;;;31.47;17.43;;;4.30;99.90;;;;;;5042392;28;20235;-52
2023/11/12 01:03:48;;;;;;;31.47;18.23;;;4.30;99.90;;;;;;5042451;28;20229;-52
2023/11/12 01:06:17;;;;;;;31.23;17.83;;;4.40;99.90;;;;;;5048599;28;20216;-52
2023/11/12 01:08:45;;;;;;;32.13;17.83;;;4.40;99.90;;;;;;5046657;28;20657;-52
2023/11/12 01:11:14;;;;;;;32.40;18.03;;;4.40;99.90;;;;;;5042924;28;20224;-52
2023/11/12 01:13:43;;;;;;;32.73;19.03;;;4.50;99.90;;;;;;5043826;28;20224;-52
2023/11/12 01:16:12;;;;;;;32.10;19.23;;;4.50;99.90;;;;;;5044653;28;20509;-53
2023/11/12 01:18:41;;;;;;;35.33;18.37;;;4.60;99.90;;;;;;5045281;28;20279;-51
2023/11/12 01:21:10;;;;;;;29.50;18.60;;;4.60;99.90;;;;;;5040988;28;20241;-53
2023/11/12 01:23:39;;;;;;;31.27;17.83;;;4.50;99.90;;;;;;5047033;28;20221;-52
2023/11/12 01:26:07;;;;;;;28.13;17.70;;;4.50;99.90;;;;;;5045812;28;20239;-51
2023/11/12 01:28:36;;;;;;;34.70;17.70;;;4.50;99.90;;;;;;5044808;28;20224;-53
2023/11/12 01:31:05;;;;;;;29.97;17.70;;;4.50;99.90;;;;;;5042241;28;20304;-50
2023/11/12 01:33:34;;;;;;;35.40;20.20;;;4.50;99.90;;;;;;5042853;28;20223;-52
2023/11/12 01:36:03;;;;;;;30.47;20.27;;;4.40;99.90;;;;;;5037276;28;20240;-49
2023/11/12 01:38:31;;;;;;;35.83;21.67;;;4.40;99.90;;;;;;5047316;28;20270;-52
2023/11/12 01:41:03;;;;;;;40.87;23.47;;;4.40;99.90;;;;;;5047784;28;20235;-51
2023/11/12 01:43:31;;;;;;;49.37;26.63;;;4.40;99.90;;;;;;5047784;28;20216;-51
2023/11/12 01:46:01;;;;;;;41.60;22.70;;;4.30;99.90;;;;;;5045565;28;20216;-52
2023/11/12 01:48:31;;;;;;;41.67;22.73;;;4.30;99.90;;;;;;5039486;28;20221;-52
2023/11/12 01:51:04;;;;;;;38.63;22.77;;;4.20;99.90;;;;;;5039018;28;20243;-53
2023/11/12 01:53:33;;;;;;;41.77;22.50;;;4.10;99.90;;;;;;5040379;28;20283;-53
2023/11/12 01:56:02;;;;;;;35.83;21.20;;;4.10;99.90;;;;;;5046142;28;20221;-53
2023/11/12 01:58:31;;;;;;;33.97;21.30;;;4.10;99.90;;;;;;5044067;28;20244;-54
2023/11/12 02:01:01;;;;;;;35.43;22.20;;;4.00;99.90;;;;;;5043405;28;20212;-54
2023/11/12 02:03:31;;;;;;;35.17;21.13;;;4.00;99.90;;;;;;5041760;28;20231;-53
2023/11/12 02:05:59;;;;;;;37.10;22.53;;;4.00;99.90;;;;;;5039971;28;20303;-54
2023/11/12 02:08:27;;;;;;;38.40;21.37;;;4.00;99.90;;;;;;5044678;28;20221;-51
2023/11/12 02:10:56;;;;;;;39.27;21.93;;;4.10;99.90;;;;;;5044681;28;20778;-54
2023/11/12 02:13:24;;;;;;;39.57;21.30;;;4.00;99.90;;;;;;5043471;28;20192;-53
2023/11/12 02:15:53;;;;;;;39.93;22.90;;;4.10;99.90;;;;;;5045771;28;20221;-49
2023/11/12 02:18:21;;;;;;;41.70;22.43;;;4.00;99.90;;;;;;5043532;28;20220;-51
2023/11/12 02:20:51;;;;;;;37.20;21.60;;;4.00;99.90;;;;;;5041652;28;20240;-53
2023/11/12 02:23:19;;;;;;;37.97;22.57;;;4.00;99.90;;;;;;5042317;28;20757;-52
2023/11/12 02:25:49;;;;;;;44.17;22.97;;;4.00;99.90;;;;;;5044513;28;20607;-50
2023/11/12 02:28:19;;;;;;;37.77;21.73;;;4.00;99.90;;;;;;5044089;28;20198;-50
2023/11/12 02:30:47;;;;;;;39.50;22.37;;;4.00;99.90;;;;;;5044820;28;20213;-49
2023/11/12 02:33:16;;;;;;;43.23;21.40;;;4.10;99.90;;;;;;5041652;28;20268;-52
2023/11/12 02:35:46;;;;;;;44.40;22.20;;;4.10;99.90;;;;;;5042758;28;20221;-49
2023/11/12 02:38:14;;;;;;;49.23;22.40;;;4.10;99.90;;;;;;5043710;28;20217;-49
2023/11/12 02:40:45;;;;;;;43.53;23.17;;;4.10;99.90;;;;;;5045208;28;20189;-50
2023/11/12 02:43:16;;;;;;;46.80;23.27;;;4.10;99.90;;;;;;5039673;28;20759;-48
2023/11/12 02:45:44;;;;;;;54.57;23.20;;;4.20;99.90;;;;;;5044213;28;20232;-50
2023/11/12 02:48:13;;;;;;;54.77;22.87;;;4.20;99.90;;;;;;5043632;28;20213;-50
2023/11/12 02:50:42;;;;;;;54.23;23.10;;;4.20;99.90;;;;;;5043044;28;20233;-53
2023/11/12 02:53:11;;;;;;;73.67;23.60;;;4.30;99.90;;;;;;5045880;28;20229;-51
2023/11/12 02:55:40;;;;;;;79.70;23.47;;;4.40;99.90;;;;;;5043909;28;20281;-53
2023/11/12 02:58:10;;;;;;;82.60;23.30;;;4.30;99.90;;;;;;5043545;28;20208;-52
2023/11/12 03:00:39;;;;;;;114.73;24.00;;;4.30;99.90;;;;;;5044953;28;20228;-53
2023/11/12 03:03:07;;;;;;;67.10;23.40;;;4.40;99.90;;;;;;5047377;28;20218;-54
2023/11/12 03:05:36;;;;;;;114.13;24.40;;;4.30;99.90;;;;;;5047782;28;20737;-54
2023/11/12 03:08:04;;;;;;;111.50;22.93;;;4.30;99.90;;;;;;5043860;28;20220;-53
2023/11/12 03:10:33;;;;;;;135.70;24.80;;;4.40;99.90;;;;;;5045970;28;20185;-52
2023/11/12 03:13:01;;;;;;;112.77;24.30;;;4.40;99.90;;;;;;5038367;28;20275;-54
2023/11/12 03:15:29;;;;;;;88.23;24.83;;;4.40;99.90;;;;;;5038419;28;20217;-51
2023/11/12 03:17:59;;;;;;;128.27;24.43;;;4.40;99.90;;;;;;5043514;28;21127;-53
2023/11/12 03:20:27;;;;;;;100.77;23.47;;;4.40;99.90;;;;;;5039407;28;20658;-55
2023/11/12 03:22:56;;;;;;;165.30;26.70;;;4.40;99.90;;;;;;5043717;28;20225;-54
2023/11/12 03:25:24;;;;;;;139.60;27.43;;;4.50;99.90;;;;;;5044879;28;20197;-52
2023/11/12 03:27:53;;;;;;;175.00;27.30;;;4.50;99.90;;;;;;5041136;28;20868;-53
2023/11/12 03:30:21;;;;;;;152.60;25.70;;;4.50;99.90;;;;;;5041353;28;20311;-54
2023/11/12 03:32:49;;;;;;;134.87;25.10;;;4.50;99.90;;;;;;5040395;28;20790;-54
2023/11/12 03:35:22;;;;;;;131.30;24.13;;;4.50;99.90;;;;;;5038402;28;20581;-54
2023/11/12 03:37:50;;;;;;;83.93;23.13;;;4.50;99.90;;;;;;5040224;28;20678;-53
2023/11/12 03:40:18;;;;;;;160.93;24.47;;;4.60;99.90;;;;;;5040646;28;20541;-55
2023/11/12 03:42:46;;;;;;;77.67;21.27;;;4.60;99.90;;;;;;5039468;28;20707;-55
2023/11/12 03:45:15;;;;;;;106.97;23.73;;;4.60;99.90;;;;;;5040206;28;20323;-52
2023/11/12 03:47:43;;;;;;;79.03;21.77;;;4.60;99.90;;;;;;5039818;28;20233;-51
2023/11/12 03:50:12;;;;;;;122.43;22.70;;;4.60;99.90;;;;;;5041073;28;20229;-51
2023/11/12 03:52:41;;;;;;;112.30;23.27;;;4.70;99.90;;;;;;5044522;28;20200;-53
2023/11/12 03:55:10;;;;;;;116.43;21.50;;;4.70;99.90;;;;;;5043804;28;20196;-50
2023/11/12 03:57:38;;;;;;;140.87;18.83;;;4.70;99.90;;;;;;5039543;28;20244;-51
2023/11/12 04:00:07;;;;;;;69.23;18.80;;;4.70;99.90;;;;;;5045486;28;20252;-51
2023/11/12 04:02:36;;;;;;;95.97;19.50;;;4.70;99.90;;;;;;5039386;28;20675;-54
2023/11/12 04:05:04;;;;;;;81.27;18.53;;;4.70;99.90;;;;;;5045876;28;20209;-53
2023/11/12 04:07:33;;;;;;;127.00;21.13;;;4.70;99.90;;;;;;5043505;28;20203;-52
2023/11/12 04:10:05;;;;;;;95.87;18.43;;;4.70;99.90;;;;;;5040393;28;20615;-62
2023/11/12 04:12:33;;;;;;;105.13;19.60;;;4.70;99.90;;;;;;5042763;28;20325;-62
2023/11/12 04:15:03;;;;;;;75.03;17.07;;;4.70;99.90;;;;;;5041602;28;20308;-62
2023/11/12 04:17:32;;;;;;;63.20;18.17;;;4.70;99.90;;;;;;5038632;28;20574;-62
2023/11/12 04:20:00;;;;;;;57.13;17.40;;;4.80;99.90;;;;;;5042401;28;22241;-62
2023/11/12 04:22:28;;;;;;;66.37;17.53;;;4.80;99.90;;;;;;5039899;28;20232;-62
2023/11/12 04:24:58;;;;;;;52.27;17.00;;;4.80;99.90;;;;;;5033487;28;20672;-62
2023/11/12 04:27:27;;;;;;;42.23;15.93;;;4.80;99.90;;;;;;5040156;28;20236;-62
2023/11/12 04:29:56;;;;;;;47.40;15.93;;;4.90;99.90;;;;;;5036060;28;20308;-62
2023/11/12 04:32:24;;;;;;;44.40;16.70;;;4.90;99.90;;;;;;5036311;28;20683;-62
2023/11/12 04:34:52;;;;;;;51.30;16.37;;;4.90;99.90;;;;;;5038852;28;20284;-62
2023/11/12 04:37:20;;;;;;;51.77;18.00;;;4.90;99.90;;;;;;5039903;28;20212;-62
2023/11/12 04:39:48;;;;;;;58.77;16.50;;;4.90;99.90;;;;;;5035397;28;20217;-62
2023/11/12 04:42:17;;;;;;;50.60;17.57;;;4.90;99.90;;;;;;5039007;28;20226;-62
2023/11/12 04:44:47;;;;;;;54.73;16.60;;;4.90;99.90;;;;;;5039373;28;20233;-63
2023/11/12 04:47:15;;;;;;;51.77;15.67;;;4.90;99.90;;;;;;5037626;28;20221;-62
2023/11/12 04:49:43;;;;;;;30.93;13.80;;;4.90;99.90;;;;;;5036302;28;20186;-60
2023/11/12 04:52:11;;;;;;;43.13;14.93;;;4.90;99.90;;;;;;5043444;28;20204;-62
2023/11/12 04:54:39;;;;;;;45.63;14.70;;;4.80;99.90;;;;;;5038145;28;20224;-62
2023/11/12 04:57:08;;;;;;;44.93;14.93;;;4.80;99.90;;;;;;5044685;28;20224;-62
2023/11/12 04:59:40;;;;;;;44.43;15.60;;;4.90;99.90;;;;;;5049761;28;20224;-62
2023/11/12 05:02:10;;;;;;;48.57;15.87;;;4.80;99.90;;;;;;5038688;28;20267;-62
2023/11/12 05:04:39;;;;;;;44.23;14.40;;;4.90;99.90;;;;;;5044726;28;20213;-61
2023/11/12 05:07:07;;;;;;;46.47;13.90;;;4.90;99.90;;;;;;5042541;28;20189;-62
2023/11/12 05:09:36;;;;;;;31.87;13.73;;;4.80;99.90;;;;;;5036797;28;20239;-62
2023/11/12 05:12:05;;;;;;;54.97;15.43;;;4.80;99.90;;;;;;5043851;28;20303;-62
2023/11/12 05:14:33;;;;;;;38.87;13.83;;;4.80;99.90;;;;;;5042908;28;20224;-62
2023/11/12 05:17:02;;;;;;;42.37;13.37;;;4.80;99.90;;;;;;5042228;28;20718;-62
2023/11/12 05:19:32;;;;;;;44.83;12.97;;;4.80;99.90;;;;;;5039772;28;20205;-62
2023/11/12 05:22:00;;;;;;;58.47;13.40;;;4.90;99.90;;;;;;5042426;28;20228;-62
2023/11/12 05:24:28;;;;;;;45.60;12.60;;;4.80;99.90;;;;;;5042732;28;20221;-63
2023/11/12 05:26:57;;;;;;;41.53;12.50;;;4.80;99.90;;;;;;5045625;28;20222;-62
2023/11/12 05:29:25;;;;;;;34.90;13.17;;;4.90;99.90;;;;;;5046882;28;20213;-62
2023/11/12 05:31:53;;;;;;;27.90;12.73;;;4.90;99.90;;;;;;5038869;28;20211;-61
2023/11/12 05:34:21;;;;;;;36.57;12.70;;;4.90;99.90;;;;;;5043119;28;20196;-62
2023/11/12 05:36:51;;;;;;;79.87;14.37;;;4.90;99.90;;;;;;5041028;28;20251;-62
2023/11/12 05:39:19;;;;;;;42.00;12.47;;;4.90;99.90;;;;;;5045760;28;20212;-62
2023/11/12 05:41:47;;;;;;;36.63;12.27;;;4.90;99.90;;;;;;5041814;28;20217;-62
2023/11/12 05:44:16;;;;;;;44.17;12.30;;;4.90;99.90;;;;;;5041083;28;20703;-62
2023/11/12 05:46:44;;;;;;;57.23;12.77;;;4.90;99.90;;;;;;5044212;28;20575;-61
2023/11/12 05:49:12;;;;;;;33.90;13.07;;;4.90;99.90;;;;;;5041076;28;20193;-62
2023/11/12 05:51:40;;;;;;;38.10;12.70;;;5.00;99.90;;;;;;5040991;28;20228;-62
2023/11/12 05:54:10;;;;;;;33.63;12.83;;;5.00;99.90;;;;;;5039983;28;20228;-62
2023/11/12 05:56:39;;;;;;;44.90;12.80;;;5.00;99.90;;;;;;5044047;28;20217;-62
2023/11/12 05:59:07;;;;;;;47.47;12.87;;;5.00;99.90;;;;;;5042263;28;21567;-62
2023/11/12 06:01:35;;;;;;;49.30;13.43;;;5.00;99.90;;;;;;5041479;28;20201;-63
2023/11/12 06:04:04;;;;;;;48.43;13.40;;;5.00;99.90;;;;;;5042401;28;20217;-62
2023/11/12 06:06:32;;;;;;;39.70;14.00;;;5.00;99.90;;;;;;5042212;28;20213;-62
2023/11/12 06:09:01;;;;;;;40.87;13.47;;;5.10;99.90;;;;;;5043314;28;20282;-62
2023/11/12 06:11:30;;;;;;;43.43;13.87;;;5.10;99.90;;;;;;5041871;28;20232;-62
2023/11/12 06:13:58;;;;;;;58.20;13.90;;;5.10;99.90;;;;;;5038928;28;20699;-62
2023/11/12 06:16:27;;;;;;;52.23;14.40;;;5.10;99.90;;;;;;5043387;28;20532;-62
2023/11/12 06:18:55;;;;;;;80.27;15.43;;;5.10;99.90;;;;;;5042821;28;20247;-62
2023/11/12 06:21:23;;;;;;;75.40;15.43;;;5.10;99.90;;;;;;5041302;28;20328;-63
2023/11/12 06:23:51;;;;;;;72.97;15.63;;;5.10;99.90;;;;;;5037776;28;20232;-62
2023/11/12 06:26:20;;;;;;;69.97;15.63;;;5.10;99.90;;;;;;5040714;28;20220;-62
2023/11/12 06:28:51;;;;;;;77.07;16.47;;;5.20;99.90;;;;;;5042775;28;20606;-62
2023/11/12 06:31:19;;;;;;;60.50;16.07;;;5.20;99.90;;;;;;5040646;28;20203;-62
2023/11/12 06:33:47;;;;;;;81.83;17.80;;;5.20;99.90;;;;;;5037962;28;20618;-62
2023/11/12 06:36:16;;;;;;;85.70;18.47;;;5.30;99.90;;;;;;5037444;28;20718;-62
2023/11/12 06:38:45;;;;;;;75.87;17.37;;;5.30;99.90;;;;;;5042006;28;20245;-62
2023/11/12 06:41:13;;;;;;;70.90;17.37;;;5.30;99.90;;;;;;5040017;28;20715;-62
2023/11/12 06:43:41;;;;;;;104.20;20.57;;;5.30;99.90;;;;;;5041761;28;20196;-62
2023/11/12 06:46:11;;;;;;;73.37;18.07;;;5.30;99.90;;;;;;5041311;28;20797;-63
2023/11/12 06:48:39;;;;;;;88.50;19.40;;;5.40;99.90;;;;;;5038339;28;20332;-62
2023/11/12 06:51:08;;;;;;;93.13;18.90;;;5.40;99.90;;;;;;5040997;28;20228;-62
2023/11/12 06:53:37;;;;;;;113.80;19.93;;;5.40;99.90;;;;;;5044440;28;20225;-62
2023/11/12 06:56:06;;;;;;;105.07;22.27;;;5.40;99.90;;;;;;5037472;28;20638;-62
2023/11/12 06:58:35;;;;;;;104.67;21.23;;;5.40;99.90;;;;;;5041872;28;20204;-62
2023/11/12 07:01:04;;;;;;;97.07;21.03;;;5.40;99.90;;;;;;5040592;28;20220;-63
2023/11/12 07:03:33;;;;;;;123.67;22.87;;;5.50;99.90;;;;;;5036051;28;20231;-63
2023/11/12 07:06:06;;;;;;;99.90;23.10;;;5.50;99.90;;;;;;5036363;28;20247;-62
2023/11/12 07:08:35;;;;;;;103.50;21.43;;;5.50;99.90;;;;;;5041497;28;20259;-62
2023/11/12 07:11:03;;;;;;;81.80;22.13;;;5.50;99.90;;;;;;5039102;28;20320;-62
2023/11/12 07:13:32;;;;;;;97.77;23.27;;;5.60;99.90;;;;;;5038476;28;20198;-62
2023/11/12 07:16:00;;;;;;;95.63;23.87;;;5.60;99.90;;;;;;5037870;28;20301;-62
2023/11/12 07:18:29;;;;;;;85.20;22.83;;;5.60;99.90;;;;;;5042152;28;20263;-62
2023/11/12 07:20:59;;;;;;;98.80;24.90;;;5.70;99.90;;;;;;5040218;28;20212;-62
2023/11/12 07:23:28;;;;;;;89.40;24.33;;;5.70;99.90;;;;;;5036658;28;20594;-62
2023/11/12 07:25:56;;;;;;;83.27;25.50;;;5.70;99.90;;;;;;5043169;28;20556;-62
2023/11/12 07:28:24;;;;;;;90.57;25.00;;;5.70;99.90;;;;;;5038896;28;20216;-62
2023/11/12 07:30:52;;;;;;;94.13;26.30;;;5.70;99.90;;;;;;5043052;28;20224;-62
2023/11/12 07:33:21;;;;;;;81.63;24.70;;;5.70;99.90;;;;;;5036909;28;20220;-62
2023/11/12 07:35:50;;;;;;;79.40;23.37;;;5.80;99.90;;;;;;5039111;28;20627;-62
2023/11/12 07:38:20;;;;;;;90.97;25.20;;;5.80;99.90;;;;;;5039142;28;20228;-62
2023/11/12 07:40:48;;;;;;;87.33;24.27;;;5.80;99.90;;;;;;5040891;28;20195;-62
2023/11/12 07:43:17;;;;;;;92.80;25.30;;;5.80;99.90;;;;;;5039899;28;20516;-62
2023/11/12 07:45:45;;;;;;;84.80;24.67;;;5.90;99.90;;;;;;5040527;28;20217;-62
2023/11/12 07:48:14;;;;;;;79.37;24.93;;;5.90;99.90;;;;;;5039952;28;20298;-62
2023/11/12 07:50:42;;;;;;;84.37;24.80;;;5.90;99.90;;;;;;5039311;28;20596;-62
2023/11/12 07:53:10;;;;;;;84.70;24.50;;;5.80;99.90;;;;;;5040707;28;20309;-62
2023/11/12 07:55:41;;;;;;;75.07;23.37;;;5.90;99.90;;;;;;5035600;28;20199;-61
2023/11/12 07:58:09;;;;;;;78.53;22.97;;;5.90;99.90;;;;;;5040898;28;20189;-62
2023/11/12 08:00:37;;;;;;;78.13;23.10;;;5.90;99.90;;;;;;5042356;28;20630;-63
2023/11/12 08:03:07;;;;;;;73.50;23.57;;;6.00;99.90;;;;;;5039690;28;20348;-63
2023/11/12 08:05:37;;;;;;;74.93;23.70;;;6.00;99.90;;;;;;5035798;28;20578;-62
2023/11/12 08:08:06;;;;;;;68.97;21.43;;;6.10;99.90;;;;;;5037924;28;20228;-62
2023/11/12 08:10:37;;;;;;;66.53;21.80;;;6.10;99.90;;;;;;5036126;28;20194;-62
2023/11/12 08:13:07;;;;;;;66.80;22.53;;;6.20;99.90;;;;;;5039854;28;20274;-62
2023/11/12 08:15:35;;;;;;;68.50;22.33;;;6.20;99.90;;;;;;5035972;28;20256;-62
2023/11/12 08:18:05;;;;;;;62.80;21.07;;;6.30;99.90;;;;;;5040227;28;20223;-63
2023/11/12 08:20:34;;;;;;;63.13;20.30;;;6.30;99.90;;;;;;5038873;28;20220;-62
2023/11/12 08:23:03;;;;;;;53.40;20.00;;;6.40;99.90;;;;;;5037186;28;20713;-62
2023/11/12 08:25:31;;;;;;;53.73;19.80;;;6.40;99.90;;;;;;5042283;28;20201;-63
2023/11/12 08:27:59;;;;;;;56.50;20.37;;;6.40;99.90;;;;;;5039385;28;20216;-62
2023/11/12 08:30:29;;;;;;;53.27;19.73;;;6.50;99.90;;;;;;5037564;28;20223;-63
2023/11/12 08:32:57;;;;;;;50.17;20.17;;;6.50;99.90;;;;;;5039271;28;20719;-62
2023/11/12 08:35:26;;;;;;;46.40;18.60;;;6.60;99.90;;;;;;5038956;28;20290;-62
2023/11/12 08:37:54;;;;;;;53.67;18.37;;;6.60;99.90;;;;;;5046608;28;20297;-62
2023/11/12 08:40:22;;;;;;;43.10;18.57;;;6.60;99.90;;;;;;5046256;28;20597;-62
2023/11/12 08:42:51;;;;;;;40.10;17.87;;;6.70;99.90;;;;;;5043546;28;20228;-62
2023/11/12 08:45:20;;;;;;;44.53;18.63;;;6.70;99.90;;;;;;5042750;28;20212;-62
2023/11/12 08:47:50;;;;;;;46.57;18.07;;;6.80;99.90;;;;;;5044286;28;20228;-62
2023/11/12 08:50:18;;;;;;;38.83;17.53;;;6.90;99.90;;;;;;5040578;28;20225;-62
2023/11/12 08:52:46;;;;;;;42.00;17.03;;;6.90;99.90;;;;;;5045558;28;20200;-62
2023/11/12 08:55:15;;;;;;;44.20;15.90;;;6.90;99.90;;;;;;5045032;28;20199;-63
2023/11/12 08:57:43;;;;;;;38.17;16.07;;;6.90;99.90;;;;;;5041788;28;20572;-62
2023/11/12 09:00:13;;;;;;;39.70;17.23;;;6.80;99.90;;;;;;5042045;28;20224;-62
2023/11/12 09:02:43;;;;;;;44.17;17.13;;;6.90;99.90;;;;;;5046770;28;20231;-61
2023/11/12 09:05:14;;;;;;;40.03;16.57;;;6.90;99.90;;;;;;5037188;28;20236;-63
2023/11/12 09:07:42;;;;;;;33.53;15.77;;;6.90;99.90;;;;;;5042774;28;20188;-62
2023/11/12 09:10:11;;;;;;;41.93;17.60;;;6.90;99.90;;;;;;5043219;28;20196;-62
2023/11/12 09:12:39;;;;;;;37.43;16.73;;;7.00;99.90;;;;;;5045551;28;20225;-62
2023/11/12 09:15:09;;;;;;;38.40;17.67;;;6.90;99.90;;;;;;5036863;28;20216;-62
2023/11/12 09:17:38;;;;;;;40.93;16.67;;;6.90;99.90;;;;;;5039760;28;20271;-62
2023/11/12 09:20:13;;;;;;;35.60;16.37;;;6.90;99.90;;;;;;5045616;28;20759;-62
2023/11/12 09:22:43;;;;;;;33.77;15.50;;;6.90;99.90;;;;;;5047264;28;20224;-62
2023/11/12 09:25:11;;;;;;;35.67;15.43;;;7.00;99.90;;;;;;5041887;28;20194;-62
2023/11/12 09:27:41;;;;;;;33.80;15.80;;;7.00;99.90;;;;;;5041950;28;20483;-62
2023/11/12 09:30:10;;;;;;;37.27;15.20;;;7.00;99.90;;;;;;5042850;28;20290;-63
2023/11/12 09:32:39;;;;;;;35.57;15.57;;;7.00;99.90;;;;;;5039783;28;20729;-62
2023/11/12 09:35:08;;;;;;;34.57;15.00;;;7.10;99.90;;;;;;5046037;28;20680;-62
2023/11/12 09:37:37;;;;;;;33.17;15.07;;;7.10;99.90;;;;;;5040914;28;20189;-62
2023/11/12 09:40:10;;;;;;;31.50;13.83;;;7.10;99.90;;;;;;5045245;28;20242;-62
2023/11/12 09:42:41;;;;;;;29.33;13.97;;;7.20;99.90;;;;;;5039865;28;20227;-63
2023/11/12 09:45:10;;;;;;;27.50;14.03;;;7.30;99.90;;;;;;5044675;28;20220;-62
2023/11/12 09:47:48;;;;;;;31.13;13.77;;;7.40;99.90;;;;;;5037056;28;20252;-63
2023/11/12 09:50:17;;;;;;;29.10;13.73;;;7.50;99.90;;;;;;5040244;28;20231;-62
2023/11/12 09:52:47;;;;;;;22.20;13.10;;;7.60;99.90;;;;;;5041063;28;20250;-61
2023/11/12 09:55:17;;;;;;;23.17;12.07;;;7.70;99.90;;;;;;5041686;28;20197;-62
2023/11/12 09:57:46;;;;;;;23.10;12.00;;;7.80;99.90;;;;;;5040097;28;20378;-62
2023/11/12 10:00:16;;;;;;;20.87;11.63;;;7.90;99.90;;;;;;5040731;28;20237;-62
2023/11/12 10:02:45;;;;;;;20.00;10.63;;;8.00;99.90;;;;;;5040681;28;20514;-62
2023/11/12 10:05:15;;;;;;;18.77;10.87;;;8.10;99.90;;;;;;5039051;28;20570;-62
2023/11/12 10:07:44;;;;;;;22.87;10.53;;;8.20;99.90;;;;;;5039906;28;20311;-62
2023/11/12 10:10:24;;;;;;;25.10;9.63;;;8.40;99.90;;;;;;5041369;28;20221;-63
2023/11/12 10:12:53;;;;;;;16.43;9.00;;;8.60;99.90;;;;;;5041301;28;20221;-62
2023/11/12 10:15:25;;;;;;;15.27;8.73;;;8.70;99.90;;;;;;5038974;28;20227;-62
2023/11/12 10:17:55;;;;;;;17.83;8.43;;;8.70;99.90;;;;;;5038758;28;20221;-62
2023/11/12 10:20:30;;;;;;;13.07;8.43;;;8.60;99.90;;;;;;5042075;28;20342;-62
2023/11/12 10:23:01;;;;;;;16.13;8.30;;;8.50;99.90;;;;;;5038034;28;20268;-61
2023/11/12 10:25:42;;;;;;;16.03;8.70;;;8.50;99.90;;;;;;5042319;28;20184;-62
2023/11/12 10:28:12;;;;;;;14.00;8.43;;;8.50;99.90;;;;;;5037172;28;20225;-62
2023/11/12 10:30:41;;;;;;;12.63;8.20;;;8.50;99.90;;;;;;5035575;28;20228;-62
2023/11/12 10:33:17;;;;;;;16.13;8.00;;;8.70;99.90;;;;;;5037771;28;20225;-62
2023/11/12 10:35:46;;;;;;;11.30;7.63;;;8.80;99.90;;;;;;5038050;28;20228;-62
2023/11/12 10:38:17;;;;;;;11.93;7.67;;;8.80;99.90;;;;;;5036279;28;20255;-62
2023/11/12 10:41:01;;;;;;;12.53;7.87;;;8.80;99.90;;;;;;5035928;28;20299;-62
2023/11/12 10:43:31;;;;;;;13.43;7.33;;;8.80;99.90;;;;;;5036753;28;20197;-62
2023/11/12 10:46:00;;;;;;;12.40;7.03;;;8.90;99.90;;;;;;5036817;28;20213;-62
2023/11/12 10:48:33;;;;;;;12.50;6.73;;;8.90;99.90;;;;;;5043539;28;20225;-62
2023/11/12 10:51:03;;;;;;;11.67;6.73;;;8.90;99.90;;;;;;5035826;28;20647;-62
2023/11/12 10:53:33;;;;;;;13.00;7.40;;;8.90;99.90;;;;;;5037893;28;20303;-62
2023/11/12 10:56:04;;;;;;;11.90;7.23;;;8.90;99.90;;;;;;5038778;28;20239;-62
2023/11/12 10:58:33;;;;;;;12.63;7.67;;;9.00;99.90;;;;;;5037396;28;20195;-62
2023/11/12 11:01:03;;;;;;;13.97;7.80;;;9.10;99.90;;;;;;5039751;28;20692;-62
2023/11/12 11:03:33;;;;;;;14.20;7.20;;;9.20;99.90;;;;;;5031216;28;20227;-63
2023/11/12 11:06:05;;;;;;;10.00;7.00;;;9.30;99.90;;;;;;5035378;28;20820;-62
2023/11/12 11:08:34;;;;;;;12.87;6.57;;;9.20;99.90;;;;;;5032858;28;20224;-62
2023/11/12 11:11:07;;;;;;;13.87;7.37;;;9.20;99.90;;;;;;5036319;28;20224;-62
2023/11/12 11:13:39;;;;;;;11.40;6.50;;;9.40;99.90;;;;;;5039368;28;20546;-62
2023/11/12 11:16:09;;;;;;;14.27;7.17;;;9.50;99.90;;;;;;5038258;28;20266;-63
2023/11/12 11:18:50;;;;;;;10.90;6.87;;;9.60;99.90;;;;;;5040684;28;20225;-63
2023/11/12 11:21:19;;;;;;;9.73;6.90;;;9.70;99.90;;;;;;5039498;28;20228;-62
2023/11/12 11:23:51;;;;;;;12.73;6.50;;;9.80;99.90;;;;;;5035215;28;20252;-62
2023/11/12 11:26:39;;;;;;;7.87;6.43;;;9.70;99.90;;;;;;5039528;28;20229;-62
2023/11/12 11:29:13;;;;;;;9.73;7.17;;;9.80;99.90;;;;;;5041483;28;20259;-63
2023/11/12 11:31:58;;;;;;;14.30;6.67;;;9.60;99.90;;;;;;5041180;28;20892;-61
2023/11/12 11:34:39;;;;;;;11.63;6.37;;;9.60;99.90;;;;;;5030325;28;20204;-63
2023/11/12 11:37:09;;;;;;;14.93;7.03;;;9.60;99.90;;;;;;5035277;28;20212;-63
2023/11/12 11:39:38;;;;;;;12.77;6.30;;;9.50;99.90;;;;;;5036499;28;21067;-63
2023/11/12 11:42:15;;;;;;;10.67;6.63;;;9.60;99.90;;;;;;5038250;28;20220;-63
2023/11/12 11:44:49;;;;;;;13.33;7.00;;;9.60;99.90;;;;;;5037398;28;20216;-63
2023/11/12 11:47:23;;;;;;;10.47;6.13;;;9.60;99.90;;;;;;5041936;28;20236;-60
2023/11/12 11:50:12;;;;;;;8.43;5.23;;;9.60;99.90;;;;;;5036400;28;20267;-62
2023/11/12 11:52:41;;;;;;;8.67;4.80;;;9.60;99.90;;;;;;5039193;28;20284;-61
2023/11/12 11:55:20;;;;;;;6.33;5.07;;;9.60;99.90;;;;;;5034383;28;20247;-62
2023/11/12 11:57:50;;;;;;;6.07;5.03;;;9.60;99.90;;;;;;5038261;28;20223;-61
2023/11/12 12:00:19;;;;;;;8.73;6.03;;;9.70;99.90;;;;;;5042000;28;20579;-62
2023/11/12 12:02:48;;;;;;;7.40;5.20;;;9.70;99.90;;;;;;5038407;28;20264;-61
2023/11/12 12:05:26;;;;;;;7.80;4.90;;;9.60;99.90;;;;;;5041265;28;20216;-63
2023/11/12 12:08:00;;;;;;;12.97;5.33;;;9.60;99.90;;;;;;5037813;28;21490;-62
2023/11/12 12:10:29;;;;;;;8.13;5.20;;;9.60;99.90;;;;;;5045585;28;20189;-62
2023/11/12 12:12:59;;;;;;;5.67;4.37;;;9.70;99.90;;;;;;5044313;28;20270;-62
2023/11/12 12:15:27;;;;;;;7.30;4.93;;;9.70;99.90;;;;;;5041489;28;20221;-63
2023/11/12 12:17:56;;;;;;;5.73;4.90;;;9.70;99.90;;;;;;5041318;28;20224;-63
2023/11/12 12:20:25;;;;;;;7.80;4.70;;;9.70;99.90;;;;;;5043890;28;20225;-62
2023/11/12 12:22:54;;;;;;;6.90;4.67;;;9.70;99.90;;;;;;5041161;28;20301;-61
2023/11/12 12:25:22;;;;;;;7.97;4.80;;;9.70;99.90;;;;;;5041443;28;20196;-62
2023/11/12 12:27:54;;;;;;;5.00;4.50;;;9.70;99.90;;;;;;5043336;28;20228;-62
2023/11/12 12:30:23;;;;;;;11.20;4.37;;;9.70;99.90;;;;;;5044843;28;20217;-62
2023/11/12 12:32:54;;;;;;;6.30;4.37;;;9.70;99.90;;;;;;5041967;28;20220;-62
2023/11/12 12:35:22;;;;;;;5.03;4.30;;;9.70;99.90;;;;;;5041887;28;20233;-62
2023/11/12 12:37:51;;;;;;;9.63;4.87;;;9.60;99.90;;;;;;5045147;28;20190;-61
2023/11/12 12:40:28;;;;;;;9.33;4.33;;;9.50;99.90;;;;;;5040282;28;20197;-62
2023/11/12 12:42:58;;;;;;;7.77;4.33;;;9.50;99.90;;;;;;5041751;28;20221;-62
2023/11/12 12:45:28;;;;;;;4.00;3.57;;;9.50;99.90;;;;;;5045584;28;20248;-62
2023/11/12 12:47:57;;;;;;;7.30;4.17;;;9.60;99.90;;;;;;5041196;28;20677;-62
2023/11/12 12:50:29;;;;;;;6.07;4.20;;;9.60;99.90;;;;;;5045627;28;20572;-62